Halstead, Kansas
Current Conditions -  °F | °C
As of 3:35 PM on Saturday 20 Dec 2014 (Local Time) from KEWK Reporting Station
Broken Clouds Broken Clouds  
Wind Chill: 39°   Ceiling: 1900
Heat Index: 46°   Visibility: 10mi
Dew Point: 36°   Wind: 18mph
Humidity: 66%   Direction: 200°SSW
Pressure: 30.09"   Gusts: NA
Location:  38°N, 97.51°W
Report Text: KEWK 202135Z AUTO 20016KT 10SM BKN019 08/02 A3009 RMK AO1
Loading
Personal Weather Stations






























Interactive Weather Map New forecast layout! Learn more

10-Day Weather Forecast

Advertisements
Track Severe Weather on mobile